sensor_id;sensor_type;location;lat;lon;timestamp;temperature;humidity
39401;DHT22;54391;50.000;7.360;2022-12-07T00:01:58;1.30;90.80
39401;DHT22;54391;50.000;7.360;2022-12-07T00:04:29;1.30;90.20
39401;DHT22;54391;50.000;7.360;2022-12-07T00:06:56;1.30;90.10
39401;DHT22;54391;50.000;7.360;2022-12-07T00:09:24;1.30;90.10
39401;DHT22;54391;50.000;7.360;2022-12-07T00:11:51;1.20;89.90
39401;DHT22;54391;50.000;7.360;2022-12-07T00:14:19;1.30;90.00
39401;DHT22;54391;50.000;7.360;2022-12-07T00:16:49;1.30;89.70
39401;DHT22;54391;50.000;7.360;2022-12-07T00:19:17;2.10;90.30
39401;DHT22;54391;50.000;7.360;2022-12-07T00:21:46;1.20;89.50
39401;DHT22;54391;50.000;7.360;2022-12-07T00:24:13;1.30;90.20
39401;DHT22;54391;50.000;7.360;2022-12-07T00:26:42;1.30;90.30
39401;DHT22;54391;50.000;7.360;2022-12-07T00:29:15;1.30;90.40
39401;DHT22;54391;50.000;7.360;2022-12-07T00:31:42;1.30;90.90
39401;DHT22;54391;50.000;7.360;2022-12-07T00:34:14;1.40;90.10
39401;DHT22;54391;50.000;7.360;2022-12-07T00:36:42;1.30;89.50
39401;DHT22;54391;50.000;7.360;2022-12-07T00:39:11;1.30;89.60
39401;DHT22;54391;50.000;7.360;2022-12-07T00:44:06;1.40;89.90
39401;DHT22;54391;50.000;7.360;2022-12-07T00:46:33;1.40;89.60
39401;DHT22;54391;50.000;7.360;2022-12-07T00:51:29;1.30;89.20
39401;DHT22;54391;50.000;7.360;2022-12-07T00:53:56;1.40;89.20
39401;DHT22;54391;50.000;7.360;2022-12-07T00:56:27;1.40;88.70
39401;DHT22;54391;50.000;7.360;2022-12-07T00:58:56;1.40;89.20
39401;DHT22;54391;50.000;7.360;2022-12-07T01:01:25;1.30;88.30
39401;DHT22;54391;50.000;7.360;2022-12-07T01:03:53;1.30;88.90
39401;DHT22;54391;50.000;7.360;2022-12-07T01:06:21;1.30;88.50
39401;DHT22;54391;50.000;7.360;2022-12-07T01:08:50;1.30;88.80
39401;DHT22;54391;50.000;7.360;2022-12-07T01:11:19;1.30;89.50
39401;DHT22;54391;50.000;7.360;2022-12-07T01:16:18;1.40;89.00
39401;DHT22;54391;50.000;7.360;2022-12-07T01:18:46;1.40;89.60
39401;DHT22;54391;50.000;7.360;2022-12-07T01:21:16;1.40;88.80
39401;DHT22;54391;50.000;7.360;2022-12-07T01:23:44;1.50;88.80
39401;DHT22;54391;50.000;7.360;2022-12-07T01:26:13;1.50;87.90
39401;DHT22;54391;50.000;7.360;2022-12-07T01:28:41;1.40;88.30
39401;DHT22;54391;50.000;7.360;2022-12-07T01:31:12;1.50;87.60
39401;DHT22;54391;50.000;7.360;2022-12-07T01:33:41;1.40;87.90
39401;DHT22;54391;50.000;7.360;2022-12-07T01:36:14;1.40;88.30
39401;DHT22;54391;50.000;7.360;2022-12-07T01:38:42;1.40;88.10
39401;DHT22;54391;50.000;7.360;2022-12-07T01:41:10;1.40;88.50
39401;DHT22;54391;50.000;7.360;2022-12-07T01:44:12;1.50;88.50
39401;DHT22;54391;50.000;7.360;2022-12-07T01:46:43;1.40;88.50
39401;DHT22;54391;50.000;7.360;2022-12-07T01:49:14;1.40;89.10
39401;DHT22;54391;50.000;7.360;2022-12-07T01:51:43;1.40;88.70
39401;DHT22;54391;50.000;7.360;2022-12-07T01:54:13;1.40;88.60
39401;DHT22;54391;50.000;7.360;2022-12-07T01:56:47;1.40;89.00
39401;DHT22;54391;50.000;7.360;2022-12-07T01:59:17;1.40;89.40
39401;DHT22;54391;50.000;7.360;2022-12-07T02:01:47;1.40;90.30
39401;DHT22;54391;50.000;7.360;2022-12-07T02:04:15;1.40;89.40
39401;DHT22;54391;50.000;7.360;2022-12-07T02:06:43;1.40;89.60
39401;DHT22;54391;50.000;7.360;2022-12-07T02:09:11;1.40;90.20
39401;DHT22;54391;50.000;7.360;2022-12-07T02:11:40;1.40;89.60
39401;DHT22;54391;50.000;7.360;2022-12-07T02:14:08;1.40;90.70
39401;DHT22;54391;50.000;7.360;2022-12-07T02:16:43;1.40;90.70
39401;DHT22;54391;50.000;7.360;2022-12-07T02:22:27;1.50;91.60
39401;DHT22;54391;50.000;7.360;2022-12-07T02:25:09;1.40;90.90
39401;DHT22;54391;50.000;7.360;2022-12-07T02:27:46;1.50;92.00
39401;DHT22;54391;50.000;7.360;2022-12-07T02:30:17;1.40;91.00
39401;DHT22;54391;50.000;7.360;2022-12-07T02:32:53;1.50;91.50
39401;DHT22;54391;50.000;7.360;2022-12-07T02:35:26;1.50;91.60
39401;DHT22;54391;50.000;7.360;2022-12-07T02:38:02;1.50;91.80
39401;DHT22;54391;50.000;7.360;2022-12-07T02:40:35;1.40;91.70
39401;DHT22;54391;50.000;7.360;2022-12-07T02:43:09;1.50;92.00
39401;DHT22;54391;50.000;7.360;2022-12-07T02:45:39;1.50;91.70
39401;DHT22;54391;50.000;7.360;2022-12-07T02:48:10;1.50;92.10
39401;DHT22;54391;50.000;7.360;2022-12-07T02:50:39;1.50;91.60
39401;DHT22;54391;50.000;7.360;2022-12-07T02:53:29;1.50;92.00
39401;DHT22;54391;50.000;7.360;2022-12-07T02:55:57;1.40;91.70
39401;DHT22;54391;50.000;7.360;2022-12-07T02:58:32;1.50;92.50
39401;DHT22;54391;50.000;7.360;2022-12-07T03:01:11;1.50;92.60
39401;DHT22;54391;50.000;7.360;2022-12-07T03:03:46;1.50;93.20
39401;DHT22;54391;50.000;7.360;2022-12-07T03:06:21;1.50;92.70
39401;DHT22;54391;50.000;7.360;2022-12-07T03:08:54;1.50;93.50
39401;DHT22;54391;50.000;7.360;2022-12-07T03:11:28;1.40;92.90
39401;DHT22;54391;50.000;7.360;2022-12-07T03:13:59;1.50;93.40
39401;DHT22;54391;50.000;7.360;2022-12-07T03:16:35;1.50;93.40
39401;DHT22;54391;50.000;7.360;2022-12-07T03:19:08;1.50;93.70
39401;DHT22;54391;50.000;7.360;2022-12-07T03:21:39;1.50;93.20
39401;DHT22;54391;50.000;7.360;2022-12-07T03:24:10;1.50;93.60
39401;DHT22;54391;50.000;7.360;2022-12-07T03:26:41;1.60;93.30
39401;DHT22;54391;50.000;7.360;2022-12-07T03:29:14;1.50;93.40
39401;DHT22;54391;50.000;7.360;2022-12-07T03:31:48;1.50;93.30
39401;DHT22;54391;50.000;7.360;2022-12-07T03:34:24;1.50;93.30
39401;DHT22;54391;50.000;7.360;2022-12-07T03:36:55;1.50;92.90
39401;DHT22;54391;50.000;7.360;2022-12-07T03:39:31;1.50;93.20
39401;DHT22;54391;50.000;7.360;2022-12-07T03:42:02;1.50;93.40
39401;DHT22;54391;50.000;7.360;2022-12-07T03:44:31;1.50;92.80
39401;DHT22;54391;50.000;7.360;2022-12-07T03:47:03;1.50;92.90
39401;DHT22;54391;50.000;7.360;2022-12-07T03:49:39;1.50;92.90
39401;DHT22;54391;50.000;7.360;2022-12-07T03:52:12;1.60;92.80
39401;DHT22;54391;50.000;7.360;2022-12-07T03:54:48;1.60;93.20
39401;DHT22;54391;50.000;7.360;2022-12-07T03:57:17;1.60;93.20
39401;DHT22;54391;50.000;7.360;2022-12-07T03:59:46;1.60;92.70
39401;DHT22;54391;50.000;7.360;2022-12-07T04:02:16;1.60;93.20
39401;DHT22;54391;50.000;7.360;2022-12-07T04:04:44;1.60;92.90
39401;DHT22;54391;50.000;7.360;2022-12-07T04:07:11;1.60;93.50
39401;DHT22;54391;50.000;7.360;2022-12-07T04:09:39;1.70;93.00
39401;DHT22;54391;50.000;7.360;2022-12-07T04:12:06;1.70;93.60
39401;DHT22;54391;50.000;7.360;2022-12-07T04:14:34;1.70;92.00
39401;DHT22;54391;50.000;7.360;2022-12-07T04:17:01;1.70;92.50
39401;DHT22;54391;50.000;7.360;2022-12-07T04:19:32;1.70;92.00
39401;DHT22;54391;50.000;7.360;2022-12-07T04:22:02;1.70;92.20
39401;DHT22;54391;50.000;7.360;2022-12-07T04:24:31;1.70;92.30
39401;DHT22;54391;50.000;7.360;2022-12-07T04:26:58;1.80;91.80
39401;DHT22;54391;50.000;7.360;2022-12-07T04:29:26;1.70;91.50
39401;DHT22;54391;50.000;7.360;2022-12-07T04:31:53;1.70;92.10
39401;DHT22;54391;50.000;7.360;2022-12-07T04:34:21;1.70;91.70
39401;DHT22;54391;50.000;7.360;2022-12-07T04:36:50;1.70;91.50
39401;DHT22;54391;50.000;7.360;2022-12-07T04:39:20;1.70;92.20
39401;DHT22;54391;50.000;7.360;2022-12-07T04:41:48;1.80;91.70
39401;DHT22;54391;50.000;7.360;2022-12-07T04:44:16;1.70;91.60
39401;DHT22;54391;50.000;7.360;2022-12-07T04:46:44;1.70;91.30
39401;DHT22;54391;50.000;7.360;2022-12-07T04:49:13;1.70;92.00
39401;DHT22;54391;50.000;7.360;2022-12-07T04:51:41;1.80;91.50
39401;DHT22;54391;50.000;7.360;2022-12-07T04:54:11;1.70;92.10
39401;DHT22;54391;50.000;7.360;2022-12-07T04:56:38;1.80;91.80
39401;DHT22;54391;50.000;7.360;2022-12-07T04:59:06;1.70;92.40
39401;DHT22;54391;50.000;7.360;2022-12-07T05:01:34;1.80;92.10
39401;DHT22;54391;50.000;7.360;2022-12-07T05:04:02;1.80;91.90
39401;DHT22;54391;50.000;7.360;2022-12-07T05:06:29;1.80;92.50
39401;DHT22;54391;50.000;7.360;2022-12-07T05:08:57;1.70;91.70
39401;DHT22;54391;50.000;7.360;2022-12-07T05:11:26;1.70;92.00
39401;DHT22;54391;50.000;7.360;2022-12-07T05:14:07;1.70;92.40
39401;DHT22;54391;50.000;7.360;2022-12-07T05:16:36;1.80;92.60
39401;DHT22;54391;50.000;7.360;2022-12-07T05:19:03;1.70;92.60
39401;DHT22;54391;50.000;7.360;2022-12-07T05:21:31;1.70;92.90
39401;DHT22;54391;50.000;7.360;2022-12-07T05:23:58;1.80;93.20
39401;DHT22;54391;50.000;7.360;2022-12-07T05:26:29;1.70;92.80
39401;DHT22;54391;50.000;7.360;2022-12-07T05:28:57;1.70;93.20
39401;DHT22;54391;50.000;7.360;2022-12-07T05:31:26;1.70;93.20
39401;DHT22;54391;50.000;7.360;2022-12-07T05:33:53;1.70;93.40
39401;DHT22;54391;50.000;7.360;2022-12-07T05:36:22;1.80;93.20
39401;DHT22;54391;50.000;7.360;2022-12-07T05:38:49;1.80;93.60
39401;DHT22;54391;50.000;7.360;2022-12-07T05:41:18;1.70;93.20
39401;DHT22;54391;50.000;7.360;2022-12-07T05:44:04;1.80;93.00
39401;DHT22;54391;50.000;7.360;2022-12-07T05:46:33;1.70;93.30
39401;DHT22;54391;50.000;7.360;2022-12-07T05:49:00;1.80;94.00
39401;DHT22;54391;50.000;7.360;2022-12-07T05:51:30;1.90;94.10
39401;DHT22;54391;50.000;7.360;2022-12-07T05:53:57;1.80;93.30
39401;DHT22;54391;50.000;7.360;2022-12-07T05:56:25;1.80;93.50
39401;DHT22;54391;50.000;7.360;2022-12-07T05:58:53;1.80;94.10
39401;DHT22;54391;50.000;7.360;2022-12-07T06:01:40;1.80;94.00
39401;DHT22;54391;50.000;7.360;2022-12-07T06:04:07;1.70;93.60
39401;DHT22;54391;50.000;7.360;2022-12-07T06:06:35;1.80;93.80
39401;DHT22;54391;50.000;7.360;2022-12-07T06:09:03;1.80;93.80
39401;DHT22;54391;50.000;7.360;2022-12-07T06:11:30;1.80;93.70
39401;DHT22;54391;50.000;7.360;2022-12-07T06:14:15;1.70;93.70
39401;DHT22;54391;50.000;7.360;2022-12-07T06:16:44;1.80;93.80
39401;DHT22;54391;50.000;7.360;2022-12-07T06:19:11;1.80;94.00
39401;DHT22;54391;50.000;7.360;2022-12-07T06:21:39;1.80;94.10
39401;DHT22;54391;50.000;7.360;2022-12-07T06:24:07;1.80;93.70
39401;DHT22;54391;50.000;7.360;2022-12-07T06:26:34;1.80;93.80
39401;DHT22;54391;50.000;7.360;2022-12-07T06:29:02;1.80;94.30
39401;DHT22;54391;50.000;7.360;2022-12-07T06:31:29;1.80;93.60
39401;DHT22;54391;50.000;7.360;2022-12-07T06:33:59;1.80;93.70
39401;DHT22;54391;50.000;7.360;2022-12-07T06:36:28;1.80;93.70
39401;DHT22;54391;50.000;7.360;2022-12-07T06:38:56;1.80;93.90
39401;DHT22;54391;50.000;7.360;2022-12-07T06:41:23;1.90;94.20
39401;DHT22;54391;50.000;7.360;2022-12-07T06:43:51;2.00;94.00
39401;DHT22;54391;50.000;7.360;2022-12-07T06:46:18;1.90;94.60
39401;DHT22;54391;50.000;7.360;2022-12-07T06:48:45;1.90;93.30
39401;DHT22;54391;50.000;7.360;2022-12-07T06:51:14;1.90;94.00
39401;DHT22;54391;50.000;7.360;2022-12-07T06:53:42;1.90;93.60
39401;DHT22;54391;50.000;7.360;2022-12-07T06:56:09;1.90;93.50
39401;DHT22;54391;50.000;7.360;2022-12-07T06:58:37;1.90;94.10
39401;DHT22;54391;50.000;7.360;2022-12-07T07:01:09;1.80;92.50
39401;DHT22;54391;50.000;7.360;2022-12-07T07:03:37;1.80;93.20
39401;DHT22;54391;50.000;7.360;2022-12-07T07:06:05;1.80;92.90
39401;DHT22;54391;50.000;7.360;2022-12-07T07:08:35;1.80;92.60
39401;DHT22;54391;50.000;7.360;2022-12-07T07:11:03;1.80;92.20
39401;DHT22;54391;50.000;7.360;2022-12-07T07:13:30;1.80;91.80
39401;DHT22;54391;50.000;7.360;2022-12-07T07:15:58;1.70;91.80
39401;DHT22;54391;50.000;7.360;2022-12-07T07:18:25;1.70;91.60
39401;DHT22;54391;50.000;7.360;2022-12-07T07:20:54;1.70;92.20
39401;DHT22;54391;50.000;7.360;2022-12-07T07:23:22;1.70;91.90
39401;DHT22;54391;50.000;7.360;2022-12-07T07:25:51;1.70;92.50
39401;DHT22;54391;50.000;7.360;2022-12-07T07:28:18;1.70;92.10
39401;DHT22;54391;50.000;7.360;2022-12-07T07:30:46;1.70;92.90
39401;DHT22;54391;50.000;7.360;2022-12-07T07:33:13;1.70;93.20
39401;DHT22;54391;50.000;7.360;2022-12-07T07:35:50;1.70;93.10
39401;DHT22;54391;50.000;7.360;2022-12-07T07:38:17;1.70;93.60
39401;DHT22;54391;50.000;7.360;2022-12-07T07:40:45;1.70;93.70
39401;DHT22;54391;50.000;7.360;2022-12-07T07:43:13;1.80;93.80
39401;DHT22;54391;50.000;7.360;2022-12-07T07:45:41;1.80;93.80
39401;DHT22;54391;50.000;7.360;2022-12-07T07:48:08;1.70;93.60
39401;DHT22;54391;50.000;7.360;2022-12-07T07:50:36;1.70;93.30
39401;DHT22;54391;50.000;7.360;2022-12-07T07:53:03;1.70;94.00
39401;DHT22;54391;50.000;7.360;2022-12-07T07:55:31;1.80;93.20
39401;DHT22;54391;50.000;7.360;2022-12-07T07:57:58;1.80;92.30
39401;DHT22;54391;50.000;7.360;2022-12-07T08:00:27;1.80;92.90
39401;DHT22;54391;50.000;7.360;2022-12-07T08:02:54;1.80;92.60
39401;DHT22;54391;50.000;7.360;2022-12-07T08:05:22;1.90;91.50
39401;DHT22;54391;50.000;7.360;2022-12-07T08:07:49;1.80;91.60
39401;DHT22;54391;50.000;7.360;2022-12-07T08:10:17;1.90;91.80
39401;DHT22;54391;50.000;7.360;2022-12-07T08:12:44;2.00;92.00
39401;DHT22;54391;50.000;7.360;2022-12-07T08:15:31;1.90;92.20
39401;DHT22;54391;50.000;7.360;2022-12-07T08:17:58;1.90;92.50
39401;DHT22;54391;50.000;7.360;2022-12-07T08:20:26;1.90;92.30
39401;DHT22;54391;50.000;7.360;2022-12-07T08:22:53;1.90;92.70
39401;DHT22;54391;50.000;7.360;2022-12-07T08:25:21;1.90;92.60
39401;DHT22;54391;50.000;7.360;2022-12-07T08:27:49;1.90;92.80
39401;DHT22;54391;50.000;7.360;2022-12-07T08:30:18;1.90;93.40
39401;DHT22;54391;50.000;7.360;2022-12-07T08:32:47;2.00;92.90
39401;DHT22;54391;50.000;7.360;2022-12-07T08:35:15;2.10;92.90
39401;DHT22;54391;50.000;7.360;2022-12-07T08:37:43;2.10;92.60
39401;DHT22;54391;50.000;7.360;2022-12-07T08:40:12;2.20;92.10
39401;DHT22;54391;50.000;7.360;2022-12-07T08:42:41;2.10;92.80
39401;DHT22;54391;50.000;7.360;2022-12-07T08:45:13;2.20;91.40
39401;DHT22;54391;50.000;7.360;2022-12-07T08:47:43;2.20;90.10
39401;DHT22;54391;50.000;7.360;2022-12-07T08:50:14;2.30;90.60
39401;DHT22;54391;50.000;7.360;2022-12-07T08:52:41;2.40;90.90
39401;DHT22;54391;50.000;7.360;2022-12-07T08:55:10;2.40;89.10
39401;DHT22;54391;50.000;7.360;2022-12-07T08:57:38;2.50;90.30
39401;DHT22;54391;50.000;7.360;2022-12-07T09:00:07;2.60;89.10
39401;DHT22;54391;50.000;7.360;2022-12-07T09:02:35;2.60;87.00
39401;DHT22;54391;50.000;7.360;2022-12-07T09:05:03;2.60;85.60
39401;DHT22;54391;50.000;7.360;2022-12-07T09:07:32;2.50;84.40
39401;DHT22;54391;50.000;7.360;2022-12-07T09:12:29;2.50;84.70
39401;DHT22;54391;50.000;7.360;2022-12-07T09:14:56;2.50;85.70
39401;DHT22;54391;50.000;7.360;2022-12-07T09:17:24;2.40;85.30
39401;DHT22;54391;50.000;7.360;2022-12-07T09:19:51;2.60;85.30
39401;DHT22;54391;50.000;7.360;2022-12-07T09:22:19;2.50;85.90
39401;DHT22;54391;50.000;7.360;2022-12-07T09:24:48;2.70;84.40
39401;DHT22;54391;50.000;7.360;2022-12-07T09:27:15;2.60;83.60
39401;DHT22;54391;50.000;7.360;2022-12-07T09:29:43;2.20;83.10
39401;DHT22;54391;50.000;7.360;2022-12-07T09:32:11;2.50;83.20
39401;DHT22;54391;50.000;7.360;2022-12-07T09:34:38;2.60;82.80
39401;DHT22;54391;50.000;7.360;2022-12-07T09:37:06;2.50;85.10
39401;DHT22;54391;50.000;7.360;2022-12-07T09:39:34;2.50;83.80
39401;DHT22;54391;50.000;7.360;2022-12-07T09:42:05;2.50;84.60
39401;DHT22;54391;50.000;7.360;2022-12-07T09:44:33;2.50;83.50
39401;DHT22;54391;50.000;7.360;2022-12-07T09:47:02;2.50;84.20
39401;DHT22;54391;50.000;7.360;2022-12-07T09:49:31;2.60;83.70
39401;DHT22;54391;50.000;7.360;2022-12-07T09:52:02;2.60;82.10
39401;DHT22;54391;50.000;7.360;2022-12-07T09:54:30;2.50;82.00
39401;DHT22;54391;50.000;7.360;2022-12-07T09:56:58;2.60;82.70
39401;DHT22;54391;50.000;7.360;2022-12-07T09:59:28;2.70;82.30
39401;DHT22;54391;50.000;7.360;2022-12-07T10:01:56;2.70;83.00
39401;DHT22;54391;50.000;7.360;2022-12-07T10:04:44;2.80;81.50
39401;DHT22;54391;50.000;7.360;2022-12-07T10:07:12;2.70;82.00
39401;DHT22;54391;50.000;7.360;2022-12-07T10:09:39;2.70;80.20
39401;DHT22;54391;50.000;7.360;2022-12-07T10:12:08;2.60;81.40
39401;DHT22;54391;50.000;7.360;2022-12-07T10:14:39;2.60;80.40
39401;DHT22;54391;50.000;7.360;2022-12-07T10:17:27;2.60;80.80
39401;DHT22;54391;50.000;7.360;2022-12-07T10:20:13;2.60;78.70
39401;DHT22;54391;50.000;7.360;2022-12-07T10:22:54;2.60;78.90
39401;DHT22;54391;50.000;7.360;2022-12-07T10:25:25;2.50;74.90
39401;DHT22;54391;50.000;7.360;2022-12-07T10:28:11;2.50;75.50
39401;DHT22;54391;50.000;7.360;2022-12-07T10:30:47;2.60;76.30
39401;DHT22;54391;50.000;7.360;2022-12-07T10:33:31;2.50;74.50
39401;DHT22;54391;50.000;7.360;2022-12-07T10:35:59;2.50;75.40
39401;DHT22;54391;50.000;7.360;2022-12-07T10:38:28;2.50;77.80
39401;DHT22;54391;50.000;7.360;2022-12-07T10:41:06;2.60;78.40
39401;DHT22;54391;50.000;7.360;2022-12-07T10:43:33;1.20;79.40
39401;DHT22;54391;50.000;7.360;2022-12-07T10:46:44;3.20;76.00
39401;DHT22;54391;50.000;7.360;2022-12-07T10:49:47;3.30;76.80
39401;DHT22;54391;50.000;7.360;2022-12-07T10:52:35;3.50;71.20
39401;DHT22;54391;50.000;7.360;2022-12-07T10:55:20;3.60;68.10
39401;DHT22;54391;50.000;7.360;2022-12-07T10:58:01;3.70;69.40
39401;DHT22;54391;50.000;7.360;2022-12-07T11:00:34;4.60;61.00
39401;DHT22;54391;50.000;7.360;2022-12-07T11:03:30;5.20;55.80
39401;DHT22;54391;50.000;7.360;2022-12-07T11:06:10;5.50;53.10
39401;DHT22;54391;50.000;7.360;2022-12-07T11:08:52;5.70;46.00
39401;DHT22;54391;50.000;7.360;2022-12-07T11:11:26;4.80;45.20
39401;DHT22;54391;50.000;7.360;2022-12-07T11:14:03;4.50;51.40
39401;DHT22;54391;50.000;7.360;2022-12-07T11:16:44;4.40;52.20
39401;DHT22;54391;50.000;7.360;2022-12-07T11:19:25;4.20;53.50
39401;DHT22;54391;50.000;7.360;2022-12-07T11:21:57;4.20;56.00
39401;DHT22;54391;50.000;7.360;2022-12-07T11:24:30;4.00;55.50
39401;DHT22;54391;50.000;7.360;2022-12-07T11:27:18;4.10;56.60
39401;DHT22;54391;50.000;7.360;2022-12-07T11:30:00;4.40;58.30
39401;DHT22;54391;50.000;7.360;2022-12-07T11:32:43;4.40;56.40
39401;DHT22;54391;50.000;7.360;2022-12-07T11:35:21;4.30;54.50
39401;DHT22;54391;50.000;7.360;2022-12-07T11:37:54;4.20;54.90
39401;DHT22;54391;50.000;7.360;2022-12-07T11:40:27;4.10;56.60
39401;DHT22;54391;50.000;7.360;2022-12-07T11:42:59;4.10;57.20
39401;DHT22;54391;50.000;7.360;2022-12-07T11:45:31;4.30;55.10
39401;DHT22;54391;50.000;7.360;2022-12-07T11:48:01;4.20;54.80
39401;DHT22;54391;50.000;7.360;2022-12-07T11:50:34;4.20;56.00
39401;DHT22;54391;50.000;7.360;2022-12-07T11:53:14;4.10;56.10
39401;DHT22;54391;50.000;7.360;2022-12-07T11:55:47;4.00;57.20
39401;DHT22;54391;50.000;7.360;2022-12-07T11:58:33;4.00;58.10
39401;DHT22;54391;50.000;7.360;2022-12-07T12:01:17;4.00;57.80
39401;DHT22;54391;50.000;7.360;2022-12-07T12:03:51;4.00;58.30
39401;DHT22;54391;50.000;7.360;2022-12-07T12:06:20;3.80;56.10
39401;DHT22;54391;50.000;7.360;2022-12-07T12:08:53;3.80;56.70
39401;DHT22;54391;50.000;7.360;2022-12-07T12:11:36;3.60;60.50
39401;DHT22;54391;50.000;7.360;2022-12-07T12:14:34;3.50;60.10
39401;DHT22;54391;50.000;7.360;2022-12-07T12:17:18;3.40;61.60
39401;DHT22;54391;50.000;7.360;2022-12-07T12:20:00;3.40;63.90
39401;DHT22;54391;50.000;7.360;2022-12-07T12:22:34;3.40;64.60
39401;DHT22;54391;50.000;7.360;2022-12-07T12:25:05;3.50;64.10
39401;DHT22;54391;50.000;7.360;2022-12-07T12:27:35;3.50;65.30
39401;DHT22;54391;50.000;7.360;2022-12-07T12:30:05;3.60;67.00
39401;DHT22;54391;50.000;7.360;2022-12-07T12:32:38;3.60;65.40
39401;DHT22;54391;50.000;7.360;2022-12-07T12:35:30;3.70;63.40
39401;DHT22;54391;50.000;7.360;2022-12-07T12:41:00;3.60;64.20
39401;DHT22;54391;50.000;7.360;2022-12-07T12:43:41;3.70;65.10
39401;DHT22;54391;50.000;7.360;2022-12-07T12:46:38;3.60;64.90
39401;DHT22;54391;50.000;7.360;2022-12-07T12:49:39;3.90;68.10
39401;DHT22;54391;50.000;7.360;2022-12-07T12:58:35;4.00;58.30
39401;DHT22;54391;50.000;7.360;2022-12-07T13:01:38;3.90;56.60
39401;DHT22;54391;50.000;7.360;2022-12-07T13:04:31;3.90;59.10
39401;DHT22;54391;50.000;7.360;2022-12-07T13:07:02;3.90;60.30
39401;DHT22;54391;50.000;7.360;2022-12-07T13:09:32;3.70;59.50
39401;DHT22;54391;50.000;7.360;2022-12-07T13:12:05;3.60;60.70
39401;DHT22;54391;50.000;7.360;2022-12-07T13:14:43;3.60;62.70
39401;DHT22;54391;50.000;7.360;2022-12-07T13:20:46;3.70;64.90
39401;DHT22;54391;50.000;7.360;2022-12-07T13:23:21;3.80;68.40
39401;DHT22;54391;50.000;7.360;2022-12-07T13:26:04;3.90;68.60
39401;DHT22;54391;50.000;7.360;2022-12-07T13:28:36;4.10;61.80
39401;DHT22;54391;50.000;7.360;2022-12-07T13:31:34;4.10;60.70
39401;DHT22;54391;50.000;7.360;2022-12-07T13:34:02;4.10;59.40
39401;DHT22;54391;50.000;7.360;2022-12-07T13:36:32;4.10;59.70
39401;DHT22;54391;50.000;7.360;2022-12-07T13:39:16;4.10;60.40
39401;DHT22;54391;50.000;7.360;2022-12-07T13:41:48;4.10;59.40
39401;DHT22;54391;50.000;7.360;2022-12-07T13:44:18;4.00;57.40
39401;DHT22;54391;50.000;7.360;2022-12-07T13:46:52;4.00;58.60
39401;DHT22;54391;50.000;7.360;2022-12-07T13:49:22;3.90;58.90
39401;DHT22;54391;50.000;7.360;2022-12-07T13:51:50;3.90;58.00
39401;DHT22;54391;50.000;7.360;2022-12-07T13:54:19;4.00;58.30
39401;DHT22;54391;50.000;7.360;2022-12-07T13:56:49;4.00;59.20
39401;DHT22;54391;50.000;7.360;2022-12-07T13:59:19;4.00;55.40
39401;DHT22;54391;50.000;7.360;2022-12-07T14:01:50;4.10;58.10
39401;DHT22;54391;50.000;7.360;2022-12-07T14:04:33;4.00;55.80
39401;DHT22;54391;50.000;7.360;2022-12-07T14:07:19;4.00;57.30
39401;DHT22;54391;50.000;7.360;2022-12-07T14:09:57;4.00;55.80
39401;DHT22;54391;50.000;7.360;2022-12-07T14:12:26;3.90;54.80
39401;DHT22;54391;50.000;7.360;2022-12-07T14:14:54;3.80;55.40
39401;DHT22;54391;50.000;7.360;2022-12-07T14:17:25;3.70;56.40
39401;DHT22;54391;50.000;7.360;2022-12-07T14:19:54;3.60;58.30
39401;DHT22;54391;50.000;7.360;2022-12-07T14:22:28;3.60;58.60
39401;DHT22;54391;50.000;7.360;2022-12-07T14:25:17;3.70;60.90
39401;DHT22;54391;50.000;7.360;2022-12-07T14:27:50;3.70;58.30
39401;DHT22;54391;50.000;7.360;2022-12-07T14:30:19;3.70;58.00
39401;DHT22;54391;50.000;7.360;2022-12-07T14:32:51;3.60;57.10
39401;DHT22;54391;50.000;7.360;2022-12-07T14:35:19;3.50;55.50
39401;DHT22;54391;50.000;7.360;2022-12-07T14:37:48;3.50;56.00
39401;DHT22;54391;50.000;7.360;2022-12-07T14:40:17;3.40;57.90
39401;DHT22;54391;50.000;7.360;2022-12-07T14:42:46;3.40;60.50
39401;DHT22;54391;50.000;7.360;2022-12-07T14:45:19;3.50;60.50
39401;DHT22;54391;50.000;7.360;2022-12-07T14:47:49;3.40;61.60
39401;DHT22;54391;50.000;7.360;2022-12-07T14:50:18;3.40;62.70
39401;DHT22;54391;50.000;7.360;2022-12-07T14:52:48;3.40;61.10
39401;DHT22;54391;50.000;7.360;2022-12-07T14:55:23;3.40;62.80
39401;DHT22;54391;50.000;7.360;2022-12-07T14:57:51;3.40;63.40
39401;DHT22;54391;50.000;7.360;2022-12-07T15:00:20;3.40;62.50
39401;DHT22;54391;50.000;7.360;2022-12-07T15:02:49;3.40;61.10
39401;DHT22;54391;50.000;7.360;2022-12-07T15:05:17;3.30;61.80
39401;DHT22;54391;50.000;7.360;2022-12-07T15:07:45;3.30;62.50
39401;DHT22;54391;50.000;7.360;2022-12-07T15:10:18;3.10;62.40
39401;DHT22;54391;50.000;7.360;2022-12-07T15:12:46;3.10;63.20
39401;DHT22;54391;50.000;7.360;2022-12-07T15:15:14;3.10;61.40
39401;DHT22;54391;50.000;7.360;2022-12-07T15:17:43;3.00;64.00
39401;DHT22;54391;50.000;7.360;2022-12-07T15:20:16;3.00;64.80
39401;DHT22;54391;50.000;7.360;2022-12-07T15:22:44;2.90;65.30
39401;DHT22;54391;50.000;7.360;2022-12-07T15:25:13;2.90;64.40
39401;DHT22;54391;50.000;7.360;2022-12-07T15:27:40;3.00;64.90
39401;DHT22;54391;50.000;7.360;2022-12-07T15:30:08;2.90;65.80
39401;DHT22;54391;50.000;7.360;2022-12-07T15:32:36;3.00;65.90
39401;DHT22;54391;50.000;7.360;2022-12-07T15:35:04;2.90;64.70
39401;DHT22;54391;50.000;7.360;2022-12-07T15:37:33;3.00;65.60
39401;DHT22;54391;50.000;7.360;2022-12-07T15:40:00;3.00;66.00
39401;DHT22;54391;50.000;7.360;2022-12-07T15:42:29;2.90;66.20
39401;DHT22;54391;50.000;7.360;2022-12-07T15:44:56;2.90;66.80
39401;DHT22;54391;50.000;7.360;2022-12-07T15:47:33;2.90;67.50
39401;DHT22;54391;50.000;7.360;2022-12-07T15:50:02;2.90;68.70
39401;DHT22;54391;50.000;7.360;2022-12-07T15:52:31;2.90;67.90
39401;DHT22;54391;50.000;7.360;2022-12-07T15:55:00;2.90;67.60
39401;DHT22;54391;50.000;7.360;2022-12-07T15:57:30;2.90;67.80
39401;DHT22;54391;50.000;7.360;2022-12-07T15:59:57;2.90;68.30
39401;DHT22;54391;50.000;7.360;2022-12-07T16:02:25;2.90;67.00
39401;DHT22;54391;50.000;7.360;2022-12-07T16:04:52;2.90;67.90
39401;DHT22;54391;50.000;7.360;2022-12-07T16:07:20;2.90;68.00
39401;DHT22;54391;50.000;7.360;2022-12-07T16:09:47;2.90;67.80
39401;DHT22;54391;50.000;7.360;2022-12-07T16:12:17;2.90;68.30
39401;DHT22;54391;50.000;7.360;2022-12-07T16:14:45;2.90;68.30
39401;DHT22;54391;50.000;7.360;2022-12-07T16:17:12;2.90;68.30
39401;DHT22;54391;50.000;7.360;2022-12-07T16:19:40;2.90;69.00
39401;DHT22;54391;50.000;7.360;2022-12-07T16:22:07;2.90;68.80
39401;DHT22;54391;50.000;7.360;2022-12-07T16:24:35;2.90;69.00
39401;DHT22;54391;50.000;7.360;2022-12-07T16:27:02;2.90;69.80
39401;DHT22;54391;50.000;7.360;2022-12-07T16:29:31;2.90;71.00
39401;DHT22;54391;50.000;7.360;2022-12-07T16:31:58;2.80;71.20
39401;DHT22;54391;50.000;7.360;2022-12-07T16:34:27;2.90;70.50
39401;DHT22;54391;50.000;7.360;2022-12-07T16:36:55;2.90;71.20
39401;DHT22;54391;50.000;7.360;2022-12-07T16:39:22;2.90;70.70